Time;durP1;ratioP1;P1;durP2;ratioP2;P2;SDS_P1;SDS_P2;PMS_P1;PMS_P2;Temp;Humidity;BMP_temperature;BMP_pressure;BME280_temperature;BME280_humidity;BME280_pressure;Samples;Min_cycle;Max_cycle;Signal;HPM_P1;HPM_P2
2022/07/23 00:00:59;;;;;;;7.83;6.30;;;25.80;58.00;;;;;;5063450;28;20801;-74
2022/07/23 00:03:25;;;;;;;9.90;7.43;;;25.70;58.40;;;;;;5063868;28;20276;-73
2022/07/23 00:05:50;;;;;;;10.30;7.00;;;25.60;58.90;;;;;;5065548;28;20201;-74
2022/07/23 00:08:16;;;;;;;9.23;7.03;;;25.50;59.30;;;;;;5063392;28;20514;-74
2022/07/23 00:10:41;;;;;;;9.40;6.53;;;25.50;59.30;;;;;;5060550;28;20182;-73
2022/07/23 00:13:07;;;;;;;9.57;6.87;;;25.40;59.30;;;;;;5073466;28;20269;-74
2022/07/23 00:15:33;;;;;;;8.60;6.93;;;25.30;59.10;;;;;;5074279;28;20206;-74
2022/07/23 00:17:59;;;;;;;8.47;7.10;;;25.30;59.10;;;;;;5077072;28;20254;-73
2022/07/23 00:20:24;;;;;;;6.90;6.00;;;25.30;59.20;;;;;;5073277;28;20253;-73
2022/07/23 00:22:54;;;;;;;11.00;6.83;;;25.30;59.50;;;;;;5070401;28;20193;-75
2022/07/23 00:25:23;;;;;;;8.93;6.57;;;25.30;59.60;;;;;;5064555;28;20235;-75
2022/07/23 00:27:48;;;;;;;9.57;6.47;;;25.20;59.90;;;;;;5066280;28;20451;-74
2022/07/23 00:30:14;;;;;;;9.67;6.07;;;25.10;60.00;;;;;;5069181;28;20910;-73
2022/07/23 00:32:51;;;;;;;9.50;5.97;;;25.10;60.10;;;;;;5069348;28;20349;-74
2022/07/23 00:35:20;;;;;;;10.73;5.77;;;25.00;60.10;;;;;;5065511;28;20265;-74
2022/07/23 00:37:46;;;;;;;7.67;5.70;;;25.00;60.10;;;;;;5068373;28;20420;-74
2022/07/23 00:40:11;;;;;;;7.27;5.80;;;25.00;60.30;;;;;;5065196;28;21705;-75
2022/07/23 00:42:38;;;;;;;9.93;5.40;;;24.80;62.50;;;;;;5063606;28;20194;-73
2022/07/23 00:45:04;;;;;;;7.73;6.10;;;24.40;65.80;;;;;;5059998;28;20222;-74
2022/07/23 00:47:30;;;;;;;9.57;5.57;;;23.90;69.70;;;;;;5062188;28;20436;-74
2022/07/23 00:49:55;;;;;;;7.60;5.80;;;23.40;70.50;;;;;;5068049;28;20539;-73
2022/07/23 00:52:21;;;;;;;10.70;6.60;;;23.20;71.00;;;;;;5069927;28;20213;-75
2022/07/23 00:54:47;;;;;;;9.53;6.27;;;23.20;71.70;;;;;;5064984;28;20207;-73
2022/07/23 00:57:12;;;;;;;10.80;6.20;;;23.10;71.10;;;;;;5059729;28;20210;-73
2022/07/23 00:59:39;;;;;;;8.07;5.73;;;23.20;71.60;;;;;;5066547;28;20430;-73
2022/07/23 01:02:05;;;;;;;6.80;5.80;;;23.20;71.70;;;;;;5067246;28;20671;-73
2022/07/23 01:04:31;;;;;;;8.30;5.80;;;23.30;70.50;;;;;;5068238;28;20473;-75
2022/07/23 01:06:57;;;;;;;9.10;5.53;;;23.30;70.70;;;;;;5067786;28;20467;-73
2022/07/23 01:09:23;;;;;;;8.37;5.33;;;23.30;70.40;;;;;;5061169;28;20687;-72
2022/07/23 01:11:49;;;;;;;7.63;5.43;;;23.40;69.40;;;;;;5063716;28;20553;-73
2022/07/23 01:14:17;;;;;;;7.77;6.03;;;23.50;69.70;;;;;;5065619;28;20860;-74
2022/07/23 01:16:44;;;;;;;10.57;5.50;;;23.50;69.70;;;;;;5066322;28;21016;-73
2022/07/23 01:19:11;;;;;;;5.73;5.10;;;23.60;69.40;;;;;;5064406;28;20551;-72
2022/07/23 01:21:40;;;;;;;8.10;5.87;;;23.60;69.40;;;;;;5067178;28;20946;-72
2022/07/23 01:24:07;;;;;;;8.10;5.80;;;23.60;68.60;;;;;;5065453;28;20466;-72
2022/07/23 01:26:33;;;;;;;8.73;5.43;;;23.60;67.70;;;;;;5067870;28;20842;-73
2022/07/23 01:28:59;;;;;;;9.00;5.80;;;23.70;66.90;;;;;;5057974;28;20440;-73
2022/07/23 01:31:25;;;;;;;8.37;5.83;;;23.70;66.70;;;;;;5058633;28;20239;-72
2022/07/23 01:33:50;;;;;;;9.10;6.00;;;23.70;66.40;;;;;;5068253;28;20212;-73
2022/07/23 01:36:16;;;;;;;9.93;6.90;;;23.70;66.40;;;;;;5066545;28;21001;-71
2022/07/23 01:38:42;;;;;;;7.90;6.13;;;23.80;66.40;;;;;;5064133;28;20216;-73
2022/07/23 01:41:07;;;;;;;7.73;6.10;;;23.80;66.10;;;;;;5069099;28;20244;-74
2022/07/23 01:43:33;;;;;;;7.13;5.10;;;23.80;66.10;;;;;;5068896;28;20217;-73
2022/07/23 01:45:58;;;;;;;7.73;5.70;;;23.80;66.30;;;;;;5062321;28;20369;-73
2022/07/23 01:48:24;;;;;;;8.40;5.70;;;23.80;66.70;;;;;;5066434;28;20198;-72
2022/07/23 01:50:49;;;;;;;7.67;5.40;;;23.80;67.30;;;;;;5063379;28;20290;-72
2022/07/23 01:53:15;;;;;;;7.23;5.30;;;23.70;67.60;;;;;;5069084;28;20189;-73
2022/07/23 01:55:42;;;;;;;8.33;6.23;;;23.70;68.20;;;;;;5063311;28;20217;-74
2022/07/23 01:58:07;;;;;;;7.77;5.83;;;23.70;67.70;;;;;;5064044;28;20565;-73
2022/07/23 02:00:33;;;;;;;8.90;6.40;;;23.60;67.90;;;;;;5068929;28;20423;-73
2022/07/23 02:02:59;;;;;;;7.43;6.33;;;23.60;67.90;;;;;;5062222;28;20182;-73
2022/07/23 02:05:31;;;;;;;8.70;6.00;;;23.50;67.50;;;;;;5063989;28;20881;-75
2022/07/23 02:07:58;;;;;;;8.20;5.67;;;23.60;66.40;;;;;;5067614;28;20299;-73
2022/07/23 02:10:24;;;;;;;10.60;7.03;;;23.60;66.70;;;;;;5066705;28;20809;-74
2022/07/23 02:12:50;;;;;;;13.40;6.80;;;23.60;66.90;;;;;;5063613;28;20428;-73
2022/07/23 02:15:15;;;;;;;8.07;6.47;;;23.60;66.90;;;;;;5064808;28;20455;-73
2022/07/23 02:17:41;;;;;;;8.43;5.90;;;23.50;67.70;;;;;;5064252;28;20556;-74
2022/07/23 02:20:07;;;;;;;9.90;6.27;;;23.50;68.20;;;;;;5069745;28;20193;-73
2022/07/23 02:22:34;;;;;;;9.33;6.00;;;23.60;68.20;;;;;;5061766;28;20179;-73
2022/07/23 02:25:00;;;;;;;10.50;5.87;;;23.50;68.50;;;;;;5066936;28;20464;-73
2022/07/23 02:27:25;;;;;;;7.90;5.43;;;23.50;68.30;;;;;;5064669;28;20432;-73
2022/07/23 02:29:51;;;;;;;10.13;7.10;;;23.50;68.50;;;;;;5061527;28;20247;-73
2022/07/23 02:32:17;;;;;;;8.60;6.37;;;23.50;68.60;;;;;;5066235;28;20181;-73
2022/07/23 02:34:42;;;;;;;9.30;6.60;;;23.40;68.80;;;;;;5063456;28;20185;-71
2022/07/23 02:37:08;;;;;;;8.97;6.47;;;23.40;68.30;;;;;;5071459;28;20254;-73
2022/07/23 02:39:35;;;;;;;11.53;6.47;;;23.30;68.60;;;;;;5076444;28;20202;-73
2022/07/23 02:42:00;;;;;;;8.13;6.07;;;23.30;68.90;;;;;;5078855;28;20185;-72
2022/07/23 02:44:26;;;;;;;7.73;5.90;;;23.20;68.90;;;;;;5073115;28;21039;-72
2022/07/23 02:46:52;;;;;;;7.27;5.57;;;23.20;69.10;;;;;;5062702;28;20296;-71
2022/07/23 02:49:17;;;;;;;10.93;6.20;;;23.20;69.40;;;;;;5068880;28;20213;-73
2022/07/23 02:51:43;;;;;;;9.20;6.03;;;23.20;69.40;;;;;;5058894;28;20182;-72
2022/07/23 02:54:08;;;;;;;7.33;5.60;;;23.20;69.50;;;;;;5064546;28;20184;-73
2022/07/23 02:56:34;;;;;;;8.23;6.03;;;23.10;69.90;;;;;;5057810;28;20682;-73
2022/07/23 02:59:00;;;;;;;9.13;5.70;;;23.00;70.40;;;;;;5067448;28;20199;-73
2022/07/23 03:01:25;;;;;;;7.73;5.90;;;23.00;70.80;;;;;;5065956;28;20205;-75
2022/07/23 03:03:51;;;;;;;7.90;6.20;;;23.00;71.10;;;;;;5072113;28;20214;-73
2022/07/23 03:06:17;;;;;;;9.50;6.47;;;22.90;71.10;;;;;;5060427;28;20678;-74
2022/07/23 03:08:42;;;;;;;9.23;6.67;;;22.90;71.10;;;;;;5066537;28;21618;-72
2022/07/23 03:11:10;;;;;;;8.83;6.50;;;22.90;71.10;;;;;;5066842;28;20214;-73
2022/07/23 03:13:37;;;;;;;8.20;6.10;;;22.90;71.10;;;;;;5067169;28;20206;-74
2022/07/23 03:16:03;;;;;;;8.87;6.37;;;22.90;71.00;;;;;;5064938;28;20999;-74
2022/07/23 03:18:29;;;;;;;8.20;5.97;;;22.90;70.80;;;;;;5067285;28;20454;-74
2022/07/23 03:20:55;;;;;;;10.90;6.97;;;23.00;70.70;;;;;;5059463;28;20450;-73
2022/07/23 03:23:20;;;;;;;10.70;8.00;;;23.00;70.20;;;;;;5069159;28;20936;-74
2022/07/23 03:25:49;;;;;;;8.27;6.33;;;23.10;70.10;;;;;;5060675;28;20566;-73
2022/07/23 03:28:16;;;;;;;9.40;6.90;;;23.10;70.10;;;;;;5065556;28;20260;-74
2022/07/23 03:30:43;;;;;;;8.77;6.40;;;23.10;69.70;;;;;;5065209;28;20438;-73
2022/07/23 03:33:08;;;;;;;8.03;6.60;;;23.20;69.50;;;;;;5064652;28;20504;-73
2022/07/23 03:35:34;;;;;;;9.00;6.37;;;23.20;69.50;;;;;;5064641;28;20872;-72
2022/07/23 03:38:00;;;;;;;8.07;6.47;;;23.20;69.20;;;;;;5072232;28;20189;-73
2022/07/23 03:40:25;;;;;;;9.60;6.47;;;23.30;69.20;;;;;;5067549;28;20190;-73
2022/07/23 03:42:51;;;;;;;9.07;6.80;;;23.30;69.20;;;;;;5062646;28;20250;-73
2022/07/23 03:45:17;;;;;;;9.60;6.63;;;23.30;69.10;;;;;;5066498;28;20217;-73
2022/07/23 03:47:44;;;;;;;9.57;6.47;;;23.30;69.20;;;;;;5067566;28;20182;-75
2022/07/23 03:50:10;;;;;;;11.03;6.73;;;23.40;69.20;;;;;;5065598;28;20269;-74
2022/07/23 03:52:36;;;;;;;9.43;6.70;;;23.40;69.40;;;;;;5063523;28;20417;-73
2022/07/23 03:55:03;;;;;;;8.70;6.47;;;23.40;69.50;;;;;;5065542;28;20459;-74
2022/07/23 03:57:29;;;;;;;9.97;6.70;;;23.30;69.80;;;;;;5057689;28;20221;-73
2022/07/23 03:59:55;;;;;;;10.50;7.00;;;23.20;70.50;;;;;;5061086;28;20426;-74
2022/07/23 04:02:20;;;;;;;11.70;7.00;;;23.20;70.50;;;;;;5062168;28;20504;-74
2022/07/23 04:04:46;;;;;;;8.60;6.30;;;23.20;70.40;;;;;;5073543;28;20208;-74
2022/07/23 04:07:12;;;;;;;11.07;7.30;;;23.20;71.00;;;;;;5062875;28;20229;-74
2022/07/23 04:09:40;;;;;;;9.73;6.73;;;23.20;71.30;;;;;;5069198;28;20198;-74
2022/07/23 04:12:06;;;;;;;11.87;6.43;;;23.20;71.40;;;;;;5066730;28;20415;-75
2022/07/23 04:14:32;;;;;;;11.57;7.23;;;23.30;71.30;;;;;;5070501;28;20446;-73
2022/07/23 04:16:57;;;;;;;9.10;6.80;;;23.40;71.10;;;;;;5069670;28;20475;-74
2022/07/23 04:19:23;;;;;;;9.70;7.00;;;23.40;70.40;;;;;;5071407;28;20184;-73
2022/07/23 04:21:49;;;;;;;10.30;7.10;;;23.40;70.70;;;;;;5069315;28;20185;-74
2022/07/23 04:24:14;;;;;;;7.97;6.10;;;23.30;70.70;;;;;;5069460;28;20205;-72
2022/07/23 04:26:40;;;;;;;10.20;6.93;;;23.20;71.10;;;;;;5061557;28;20217;-73
2022/07/23 04:29:05;;;;;;;9.03;6.90;;;23.20;71.60;;;;;;5069202;28;20641;-73
2022/07/23 04:31:31;;;;;;;12.67;7.40;;;23.20;71.30;;;;;;5067037;28;20188;-74
2022/07/23 04:33:56;;;;;;;8.33;6.90;;;23.20;71.10;;;;;;5069026;28;20194;-72
2022/07/23 04:36:22;;;;;;;10.83;6.57;;;23.20;71.00;;;;;;5062161;28;20222;-74
2022/07/23 04:38:48;;;;;;;10.80;7.03;;;23.10;71.40;;;;;;5067033;28;20212;-74
2022/07/23 04:41:13;;;;;;;8.00;6.30;;;23.10;71.10;;;;;;5064355;28;20193;-74
2022/07/23 04:43:39;;;;;;;9.73;6.63;;;23.00;71.40;;;;;;5057784;28;20574;-73
2022/07/23 04:46:05;;;;;;;11.13;6.60;;;23.00;71.10;;;;;;5060942;28;20217;-73
2022/07/23 04:48:31;;;;;;;12.53;7.27;;;23.10;71.10;;;;;;5064766;28;20190;-73
2022/07/23 04:50:57;;;;;;;10.00;6.23;;;23.10;71.00;;;;;;5064572;28;20793;-74
2022/07/23 04:53:23;;;;;;;10.03;7.17;;;23.10;71.00;;;;;;5069910;28;20200;-74
2022/07/23 04:55:48;;;;;;;8.97;6.60;;;23.10;71.00;;;;;;5060843;28;20205;-74
2022/07/23 04:58:14;;;;;;;9.83;7.63;;;23.10;71.00;;;;;;5063941;28;20441;-73
2022/07/23 05:00:39;;;;;;;9.00;7.00;;;23.00;71.00;;;;;;5068967;28;20593;-73
2022/07/23 05:03:05;;;;;;;11.70;7.23;;;23.10;71.00;;;;;;5070116;28;20532;-73
2022/07/23 05:05:31;;;;;;;9.90;7.03;;;23.20;70.50;;;;;;5065988;28;20304;-74
2022/07/23 05:07:56;;;;;;;9.80;6.70;;;23.20;70.50;;;;;;5068359;28;20192;-72
2022/07/23 05:10:22;;;;;;;9.23;6.83;;;23.20;70.50;;;;;;5066128;28;20181;-73
2022/07/23 05:12:47;;;;;;;9.30;7.17;;;23.20;70.40;;;;;;5067909;28;20181;-73
2022/07/23 05:15:13;;;;;;;12.90;7.37;;;23.30;70.40;;;;;;5067526;28;20213;-73
2022/07/23 05:17:39;;;;;;;12.73;7.87;;;23.30;70.20;;;;;;5070238;28;20312;-73
2022/07/23 05:20:05;;;;;;;13.10;7.13;;;23.40;69.80;;;;;;5068123;28;20282;-73
2022/07/23 05:22:30;;;;;;;8.60;5.73;;;23.50;69.90;;;;;;5069158;28;20181;-74
2022/07/23 05:24:56;;;;;;;9.60;6.67;;;23.60;69.70;;;;;;5066152;28;20475;-73
2022/07/23 05:27:21;;;;;;;8.37;6.63;;;23.60;69.40;;;;;;5064357;28;20193;-74
2022/07/23 05:29:48;;;;;;;9.90;6.70;;;23.60;68.80;;;;;;5068537;28;20225;-74
2022/07/23 05:32:14;;;;;;;10.27;6.47;;;23.70;68.60;;;;;;5069461;28;20847;-74
2022/07/23 05:34:39;;;;;;;8.57;7.03;;;23.90;67.90;;;;;;5070134;28;20613;-74
2022/07/23 05:37:06;;;;;;;11.07;6.77;;;23.90;68.00;;;;;;5063210;28;20222;-74
2022/07/23 05:39:31;;;;;;;10.43;7.37;;;23.90;67.90;;;;;;5068831;28;20427;-75
2022/07/23 05:41:57;;;;;;;10.37;6.87;;;23.90;68.20;;;;;;5070681;28;20960;-73
2022/07/23 05:44:23;;;;;;;8.97;7.20;;;23.90;68.50;;;;;;5063418;28;20211;-73
2022/07/23 05:46:48;;;;;;;10.90;7.43;;;23.80;68.60;;;;;;5064252;28;20206;-74
2022/07/23 05:49:14;;;;;;;11.37;6.80;;;23.90;68.80;;;;;;5069450;28;20187;-74
2022/07/23 05:51:40;;;;;;;9.07;7.03;;;23.90;68.60;;;;;;5072343;28;20182;-74
2022/07/23 05:54:05;;;;;;;10.70;7.80;;;23.90;68.60;;;;;;5074661;28;20240;-75
2022/07/23 05:56:31;;;;;;;9.20;6.80;;;24.00;68.00;;;;;;5066593;28;20726;-73
2022/07/23 05:58:57;;;;;;;9.30;7.30;;;24.00;68.20;;;;;;5069820;28;20622;-74
2022/07/23 06:01:23;;;;;;;11.37;7.60;;;23.90;68.60;;;;;;5065497;28;20194;-74
2022/07/23 06:03:48;;;;;;;9.03;7.53;;;23.80;68.80;;;;;;5068234;28;20205;-74
2022/07/23 06:06:14;;;;;;;10.40;7.37;;;23.90;68.50;;;;;;5070182;28;20616;-76
2022/07/23 06:08:39;;;;;;;10.83;7.10;;;23.90;68.50;;;;;;5070356;28;20189;-76
2022/07/23 06:11:05;;;;;;;10.10;7.10;;;24.00;68.30;;;;;;5070471;28;20268;-76
2022/07/23 06:13:31;;;;;;;10.93;7.67;;;24.00;68.20;;;;;;5070225;28;20190;-76
2022/07/23 06:15:56;;;;;;;10.57;6.90;;;23.90;68.50;;;;;;5061061;28;20215;-75
2022/07/23 06:18:22;;;;;;;11.60;7.53;;;23.90;68.20;;;;;;5067435;28;20770;-76
2022/07/23 06:20:47;;;;;;;11.03;8.50;;;23.90;68.30;;;;;;5081819;28;20183;-76
2022/07/23 06:23:13;;;;;;;10.57;8.03;;;24.00;67.60;;;;;;5088954;28;20212;-77
2022/07/23 06:25:39;;;;;;;12.57;8.40;;;24.10;67.60;;;;;;5085661;28;20215;-76
2022/07/23 06:28:05;;;;;;;10.27;7.17;;;24.10;67.30;;;;;;5083962;28;20199;-76
2022/07/23 06:30:30;;;;;;;12.00;7.43;;;24.30;66.60;;;;;;5071875;28;20176;-77
2022/07/23 06:32:56;;;;;;;10.20;7.40;;;24.30;65.80;;;;;;5075315;28;20181;-74
2022/07/23 06:35:21;;;;;;;9.40;7.20;;;24.10;66.70;;;;;;5074786;28;20248;-75
2022/07/23 06:37:48;;;;;;;12.90;7.90;;;24.10;67.20;;;;;;5075561;28;20672;-76
2022/07/23 06:40:13;;;;;;;10.20;7.20;;;24.30;67.00;;;;;;5074090;28;20186;-76
2022/07/23 06:42:39;;;;;;;11.50;7.57;;;24.50;66.10;;;;;;5071085;28;20516;-75
2022/07/23 06:45:06;;;;;;;10.20;7.80;;;24.60;64.10;;;;;;5051792;28;20212;-76
2022/07/23 06:47:32;;;;;;;11.43;7.07;;;24.50;64.40;;;;;;5053555;28;20198;-77
2022/07/23 06:49:58;;;;;;;12.40;7.90;;;24.60;64.80;;;;;;5054714;28;20887;-76
2022/07/23 06:52:23;;;;;;;10.70;8.53;;;24.50;65.10;;;;;;5071204;28;20191;-75
2022/07/23 06:54:49;;;;;;;10.73;7.57;;;24.00;67.00;;;;;;5074004;28;20207;-78
2022/07/23 06:57:15;;;;;;;12.97;8.20;;;23.90;67.00;;;;;;5059758;28;20268;-76
2022/07/23 06:59:41;;;;;;;10.40;7.07;;;23.90;67.20;;;;;;5076066;28;20205;-77
2022/07/23 07:02:07;;;;;;;11.50;8.40;;;24.00;67.20;;;;;;5070411;28;20236;-77
2022/07/23 07:04:33;;;;;;;11.60;8.53;;;24.00;66.40;;;;;;5072739;28;20250;-76
2022/07/23 07:06:59;;;;;;;12.07;7.73;;;24.00;66.70;;;;;;5073852;28;20526;-75
2022/07/23 07:09:25;;;;;;;11.53;8.23;;;24.10;66.40;;;;;;5070939;28;20503;-76
2022/07/23 07:11:51;;;;;;;9.50;7.53;;;23.90;66.00;;;;;;5070985;28;20204;-76
2022/07/23 07:14:16;;;;;;;14.57;8.23;;;23.80;66.60;;;;;;5071203;28;20182;-77
2022/07/23 07:16:42;;;;;;;13.90;8.30;;;23.80;66.30;;;;;;5061518;28;20231;-76
2022/07/23 07:19:07;;;;;;;13.27;8.80;;;23.60;66.90;;;;;;5072377;28;20197;-75
2022/07/23 07:21:33;;;;;;;12.83;7.80;;;23.30;68.00;;;;;;5071732;28;20250;-75
2022/07/23 07:23:59;;;;;;;12.73;7.43;;;23.20;68.20;;;;;;5067142;28;20258;-74
2022/07/23 07:26:24;;;;;;;13.20;8.17;;;23.10;69.40;;;;;;5069791;28;20700;-76
2022/07/23 07:28:50;;;;;;;13.67;8.00;;;23.00;69.50;;;;;;5069736;28;20550;-77
2022/07/23 07:31:16;;;;;;;10.00;7.40;;;23.00;70.20;;;;;;5066111;28;20188;-75
2022/07/23 07:33:42;;;;;;;11.57;7.90;;;23.10;69.90;;;;;;5064752;28;20197;-75
2022/07/23 07:36:08;;;;;;;10.53;7.50;;;23.20;69.50;;;;;;5063572;28;21306;-76
2022/07/23 07:38:34;;;;;;;11.00;8.17;;;23.30;69.70;;;;;;5062763;28;20713;-75
2022/07/23 07:40:59;;;;;;;13.80;10.17;;;23.50;70.10;;;;;;5067394;28;20193;-76
2022/07/23 07:43:25;;;;;;;15.07;8.40;;;23.60;69.90;;;;;;5071309;28;20439;-74
2022/07/23 07:45:51;;;;;;;11.73;8.23;;;23.30;69.90;;;;;;5072643;28;20225;-76
2022/07/23 07:48:16;;;;;;;13.43;8.83;;;23.30;72.10;;;;;;5072174;28;20179;-76
2022/07/23 07:50:42;;;;;;;12.77;8.40;;;23.30;72.70;;;;;;5069352;28;20265;-76
2022/07/23 07:53:08;;;;;;;11.90;7.93;;;23.00;74.00;;;;;;5063614;28;20768;-76
2022/07/23 07:55:34;;;;;;;11.13;8.10;;;23.00;74.00;;;;;;5067466;28;20298;-77
2022/07/23 07:58:00;;;;;;;10.90;8.00;;;23.20;72.70;;;;;;5065276;28;20525;-75
2022/07/23 08:00:26;;;;;;;11.20;7.70;;;23.20;72.30;;;;;;5064511;28;20433;-74
2022/07/23 08:02:53;;;;;;;16.57;10.57;;;23.20;71.70;;;;;;5069183;28;20199;-75
2022/07/23 08:05:21;;;;;;;19.47;11.57;;;23.10;72.60;;;;;;5065535;28;21219;-75
2022/07/23 08:07:47;;;;;;;20.03;10.83;;;23.20;72.60;;;;;;5067565;28;20437;-76
2022/07/23 08:10:12;;;;;;;14.80;9.97;;;23.30;71.80;;;;;;5065060;28;20988;-74
2022/07/23 08:12:44;;;;;;;11.27;7.67;;;23.40;71.30;;;;;;5064460;28;20209;-75
2022/07/23 08:15:11;;;;;;;13.13;9.20;;;23.50;69.90;;;;;;5063694;28;20218;-75
2022/07/23 08:17:37;;;;;;;10.53;7.50;;;23.50;69.70;;;;;;5067297;28;20967;-75
2022/07/23 08:20:07;;;;;;;11.70;7.37;;;23.80;69.20;;;;;;5063261;28;21889;-76
2022/07/23 08:22:53;;;;;;;11.90;9.00;;;24.10;68.60;;;;;;5063259;28;20432;-75
2022/07/23 08:25:25;;;;;;;11.50;8.77;;;23.80;68.60;;;;;;5068115;28;20796;-75
2022/07/23 08:27:51;;;;;;;13.50;8.80;;;23.30;70.10;;;;;;5064771;28;20430;-76
2022/07/23 08:30:17;;;;;;;12.67;8.90;;;23.40;70.40;;;;;;5061702;28;20591;-76
2022/07/23 08:32:56;;;;;;;12.90;8.97;;;23.70;69.20;;;;;;5064402;28;20465;-75
2022/07/23 08:35:33;;;;;;;12.67;8.67;;;23.70;68.30;;;;;;5059042;28;20464;-76
2022/07/23 08:38:01;;;;;;;12.50;7.47;;;23.80;68.30;;;;;;5060548;28;20489;-75
2022/07/23 08:40:28;;;;;;;12.00;7.87;;;24.00;68.20;;;;;;5063592;28;20790;-74
2022/07/23 08:42:54;;;;;;;9.67;7.63;;;24.20;66.60;;;;;;5066085;28;20930;-76
2022/07/23 08:45:22;;;;;;;9.73;7.27;;;24.40;65.10;;;;;;5058600;28;20480;-76
2022/07/23 08:47:56;;;;;;;9.80;7.80;;;24.30;65.60;;;;;;5063443;28;20708;-76
2022/07/23 08:50:23;;;;;;;11.50;7.70;;;24.30;65.60;;;;;;5061583;28;20408;-74
2022/07/23 08:52:50;;;;;;;14.70;7.60;;;24.20;65.60;;;;;;5067870;28;20425;-76
2022/07/23 08:55:21;;;;;;;10.27;7.60;;;24.30;65.60;;;;;;5059019;28;21061;-75
2022/07/23 08:57:48;;;;;;;10.93;7.83;;;24.30;66.00;;;;;;5067206;28;20437;-75
2022/07/23 09:00:14;;;;;;;10.43;6.70;;;24.30;66.00;;;;;;5060822;28;20441;-75
2022/07/23 09:02:41;;;;;;;10.80;7.33;;;24.40;65.30;;;;;;5068211;28;20939;-75
2022/07/23 09:05:10;;;;;;;10.90;7.47;;;24.30;65.00;;;;;;5068509;28;20880;-75
2022/07/23 09:07:36;;;;;;;11.10;7.97;;;24.30;65.60;;;;;;5070334;28;20487;-75
2022/07/23 09:10:10;;;;;;;10.53;6.87;;;24.30;65.40;;;;;;5066483;28;20471;-74
2022/07/23 09:12:37;;;;;;;9.87;7.53;;;24.50;64.50;;;;;;5069286;28;20413;-75
2022/07/23 09:15:07;;;;;;;9.60;7.50;;;24.90;63.70;;;;;;5069398;28;20419;-75
2022/07/23 09:17:40;;;;;;;11.93;7.50;;;25.20;62.20;;;;;;5065905;28;20580;-76
2022/07/23 09:20:14;;;;;;;11.80;7.30;;;25.40;60.70;;;;;;5067131;28;20804;-76
2022/07/23 09:22:47;;;;;;;8.77;7.47;;;25.50;59.90;;;;;;5067189;28;20425;-76
2022/07/23 09:25:16;;;;;;;10.07;7.67;;;25.60;59.60;;;;;;5064407;28;20845;-76
2022/07/23 09:27:47;;;;;;;9.10;7.10;;;25.90;58.80;;;;;;5066742;28;20426;-73
2022/07/23 09:30:13;;;;;;;10.47;8.00;;;26.00;58.00;;;;;;5064854;28;20426;-74
2022/07/23 09:32:39;;;;;;;9.63;7.57;;;26.20;56.90;;;;;;5065605;28;20895;-73
2022/07/23 09:35:05;;;;;;;11.33;7.53;;;26.20;56.50;;;;;;5059701;28;20207;-75
2022/07/23 09:37:31;;;;;;;11.03;7.03;;;26.40;56.80;;;;;;5058421;28;20434;-74
2022/07/23 09:40:06;;;;;;;10.03;6.97;;;26.50;56.20;;;;;;5064305;28;20964;-74
2022/07/23 09:42:31;;;;;;;11.10;8.03;;;26.60;56.00;;;;;;5062475;28;20185;-74
2022/07/23 09:44:58;;;;;;;10.27;8.00;;;26.60;55.70;;;;;;5060720;28;20952;-74
2022/07/23 09:47:29;;;;;;;8.83;7.30;;;26.20;56.20;;;;;;5063197;28;20192;-73
2022/07/23 09:50:00;;;;;;;10.27;7.70;;;26.00;56.90;;;;;;5065614;28;20637;-75
2022/07/23 09:52:30;;;;;;;11.23;8.07;;;26.10;56.90;;;;;;5064495;28;20481;-74
2022/07/23 09:55:01;;;;;;;13.53;8.30;;;26.20;56.90;;;;;;5067491;28;20515;-74
2022/07/23 09:57:27;;;;;;;9.83;8.00;;;26.20;56.60;;;;;;5066223;28;20498;-75
2022/07/23 09:59:59;;;;;;;9.57;7.73;;;26.20;56.90;;;;;;5067040;28;20436;-75
2022/07/23 10:02:27;;;;;;;10.63;7.70;;;26.20;56.80;;;;;;5064745;28;20439;-75
2022/07/23 10:04:54;;;;;;;12.23;8.53;;;26.20;57.20;;;;;;5065764;28;20466;-74
2022/07/23 10:07:23;;;;;;;12.67;8.37;;;26.30;57.40;;;;;;5060793;28;20449;-74
2022/07/23 10:09:52;;;;;;;12.70;8.10;;;26.10;58.10;;;;;;5064989;28;20429;-73
2022/07/23 10:15:05;;;;;;;11.50;8.50;;;26.40;57.60;;;;;;5067332;28;20431;-74
2022/07/23 10:17:31;;;;;;;10.00;8.00;;;26.60;57.30;;;;;;5067357;28;21055;-74
2022/07/23 10:19:57;;;;;;;11.17;8.90;;;26.50;57.70;;;;;;5068800;28;20432;-74
2022/07/23 10:22:25;;;;;;;11.03;8.03;;;26.70;57.30;;;;;;5069412;28;20542;-73
2022/07/23 10:25:00;;;;;;;11.63;8.03;;;27.20;56.10;;;;;;5064579;28;20203;-74
2022/07/23 10:27:37;;;;;;;12.70;8.43;;;27.20;55.40;;;;;;5068697;28;20465;-74
2022/07/23 10:30:07;;;;;;;13.30;8.40;;;27.40;55.30;;;;;;5065956;28;20418;-75
2022/07/23 10:32:51;;;;;;;11.67;8.57;;;27.80;53.40;;;;;;5062219;28;20418;-74
2022/07/23 10:35:38;;;;;;;7.80;7.10;;;28.20;52.10;;;;;;5062881;28;20472;-74
2022/07/23 10:38:18;;;;;;;11.20;8.20;;;27.80;52.50;;;;;;5054486;28;20826;-74
2022/07/23 10:40:54;;;;;;;13.13;8.70;;;27.60;52.80;;;;;;5060451;28;20427;-73
2022/07/23 10:43:19;;;;;;;9.17;7.50;;;27.80;52.40;;;;;;5067503;28;20851;-74
2022/07/23 10:45:45;;;;;;;12.20;8.17;;;28.00;51.20;;;;;;5062315;28;20524;-73
2022/07/23 10:48:17;;;;;;;8.50;7.23;;;28.00;51.20;;;;;;5067419;28;20717;-74
2022/07/23 10:50:44;;;;;;;9.07;6.60;;;27.60;50.30;;;;;;5061264;28;20557;-74
2022/07/23 10:53:16;;;;;;;10.27;7.43;;;27.60;49.70;;;;;;5062064;28;20884;-75
2022/07/23 10:55:48;;;;;;;10.70;6.83;;;27.30;49.90;;;;;;5056117;28;20458;-75
2022/07/23 10:58:19;;;;;;;8.73;7.23;;;27.70;49.50;;;;;;5062297;28;20417;-74
2022/07/23 11:00:45;;;;;;;10.27;7.47;;;27.70;49.80;;;;;;5064491;28;20414;-74
2022/07/23 11:03:29;;;;;;;9.90;6.97;;;28.00;50.10;;;;;;5065605;28;20769;-74
2022/07/23 11:05:54;;;;;;;8.13;6.97;;;28.00;49.50;;;;;;5061306;28;20458;-75
2022/07/23 11:08:20;;;;;;;8.73;7.67;;;28.20;49.30;;;;;;5060401;28;20492;-74
2022/07/23 11:10:51;;;;;;;8.93;7.07;;;28.60;48.30;;;;;;5061083;28;20188;-73
2022/07/23 11:13:22;;;;;;;9.90;7.90;;;28.40;49.80;;;;;;5068814;28;20180;-74
2022/07/23 11:16:18;;;;;;;10.20;7.53;;;28.50;49.40;;;;;;5060868;28;20458;-74
2022/07/23 11:18:44;;;;;;;10.27;7.83;;;28.50;49.50;;;;;;5055370;28;20434;-73
2022/07/23 11:21:23;;;;;;;8.13;7.07;;;28.70;49.50;;;;;;5067111;28;20418;-73
2022/07/23 11:23:58;;;;;;;9.07;7.47;;;28.80;49.70;;;;;;5071664;28;20210;-74
2022/07/23 11:26:43;;;;;;;10.20;8.07;;;29.10;49.00;;;;;;5071793;28;20813;-74
2022/07/23 11:29:27;;;;;;;12.67;7.50;;;28.10;51.60;;;;;;5066955;28;20421;-72
2022/07/23 11:31:53;;;;;;;10.53;8.03;;;28.40;51.30;;;;;;5067777;28;20411;-74
2022/07/23 11:34:42;;;;;;;11.63;8.43;;;28.40;51.00;;;;;;5073219;28;21133;-74
2022/07/23 11:37:12;;;;;;;12.80;8.20;;;28.10;52.40;;;;;;5065484;28;20224;-74
2022/07/23 11:39:38;;;;;;;9.70;8.10;;;28.60;51.60;;;;;;5073702;28;20913;-76
2022/07/23 11:42:06;;;;;;;10.97;7.90;;;28.60;51.00;;;;;;5070604;28;20495;-74
2022/07/23 11:44:37;;;;;;;12.63;8.63;;;27.80;53.20;;;;;;5071296;28;20993;-74
2022/07/23 11:47:05;;;;;;;11.87;7.80;;;27.50;54.40;;;;;;5071248;28;20487;-74
2022/07/23 11:49:31;;;;;;;10.10;7.63;;;27.40;54.90;;;;;;5070834;28;20414;-75
2022/07/23 11:52:14;;;;;;;10.20;8.20;;;27.50;54.90;;;;;;5070175;28;20831;-73
2022/07/23 11:54:58;;;;;;;10.43;7.87;;;27.70;54.90;;;;;;5069331;28;20414;-75
2022/07/23 11:57:33;;;;;;;8.17;6.40;;;28.60;52.10;;;;;;5069028;28;21123;-74
2022/07/23 12:00:22;;;;;;;9.70;7.57;;;28.70;52.10;;;;;;5072769;28;20414;-75
2022/07/23 12:02:52;;;;;;;11.87;8.40;;;28.80;51.60;;;;;;5070206;28;20422;-74
2022/07/23 12:05:20;;;;;;;11.50;8.40;;;28.60;51.70;;;;;;5071426;28;20475;-75
2022/07/23 12:07:52;;;;;;;9.50;7.33;;;28.00;53.20;;;;;;5062637;28;20457;-74
2022/07/23 12:10:17;;;;;;;12.67;9.40;;;27.90;53.80;;;;;;5067031;28;20450;-74
2022/07/23 12:12:44;;;;;;;14.77;8.80;;;28.20;53.20;;;;;;5070379;28;21017;-74
2022/07/23 12:15:14;;;;;;;11.13;8.60;;;28.50;52.50;;;;;;5064544;28;20203;-74
2022/07/23 12:17:43;;;;;;;10.73;8.30;;;28.30;52.90;;;;;;5066788;28;20441;-75
2022/07/23 12:20:13;;;;;;;9.93;8.10;;;28.50;52.50;;;;;;5058917;28;20557;-74
2022/07/23 12:22:41;;;;;;;12.00;8.87;;;28.60;52.50;;;;;;5068158;28;20931;-73
2022/07/23 12:25:12;;;;;;;14.00;7.93;;;29.00;51.00;;;;;;5067656;28;21000;-74
2022/07/23 12:27:38;;;;;;;10.93;8.10;;;29.00;51.30;;;;;;5065704;28;20419;-74
2022/07/23 12:30:43;;;;;;;13.80;8.40;;;29.60;49.10;;;;;;5067226;28;20887;-75
2022/07/23 12:33:12;;;;;;;10.00;8.47;;;29.30;50.10;;;;;;5043734;28;20434;-74
2022/07/23 12:35:40;;;;;;;11.23;8.63;;;29.00;50.30;;;;;;5042462;28;20459;-73
2022/07/23 12:38:11;;;;;;;10.97;8.53;;;28.90;50.30;;;;;;5044572;28;20496;-75
2022/07/23 12:40:46;;;;;;;14.70;8.83;;;29.20;49.50;;;;;;5047836;28;20454;-76
2022/07/23 12:43:23;;;;;;;9.33;8.40;;;28.90;49.90;;;;;;5042661;28;20446;-74
2022/07/23 12:45:54;;;;;;;13.07;9.73;;;28.90;50.20;;;;;;5043824;28;20493;-74